sensor_id;sensor_type;location;lat;lon;timestamp;P1;durP1;ratioP1;P2;durP2;ratioP2
45714;SDS011;31430;61.646;24.704;2023-03-01T00:01:52;47.35;;;44.40;;
45714;SDS011;31430;61.646;24.704;2023-03-01T00:04:18;46.47;;;43.58;;
45714;SDS011;31430;61.646;24.704;2023-03-01T00:06:44;47.45;;;44.50;;
45714;SDS011;31430;61.646;24.704;2023-03-01T00:09:11;48.10;;;45.10;;
45714;SDS011;31430;61.646;24.704;2023-03-01T00:11:38;47.85;;;44.85;;
45714;SDS011;31430;61.646;24.704;2023-03-01T00:14:04;47.13;;;44.20;;
45714;SDS011;31430;61.646;24.704;2023-03-01T00:16:36;46.50;;;43.60;;
45714;SDS011;31430;61.646;24.704;2023-03-01T00:21:32;48.47;;;45.47;;
45714;SDS011;31430;61.646;24.704;2023-03-01T00:24:00;49.35;;;46.28;;
45714;SDS011;31430;61.646;24.704;2023-03-01T00:26:26;49.17;;;46.10;;
45714;SDS011;31430;61.646;24.704;2023-03-01T00:28:52;48.42;;;45.42;;
45714;SDS011;31430;61.646;24.704;2023-03-01T00:31:19;47.03;;;44.13;;
45714;SDS011;31430;61.646;24.704;2023-03-01T00:33:47;45.88;;;43.03;;
45714;SDS011;31430;61.646;24.704;2023-03-01T00:36:13;48.05;;;45.05;;
45714;SDS011;31430;61.646;24.704;2023-03-01T00:38:41;47.33;;;44.38;;
45714;SDS011;31430;61.646;24.704;2023-03-01T00:41:12;47.15;;;44.22;;
45714;SDS011;31430;61.646;24.704;2023-03-01T00:43:39;46.20;;;43.30;;
45714;SDS011;31430;61.646;24.704;2023-03-01T00:46:12;47.45;;;44.50;;
45714;SDS011;31430;61.646;24.704;2023-03-01T00:48:40;46.90;;;44.00;;
45714;SDS011;31430;61.646;24.704;2023-03-01T00:51:07;46.42;;;43.53;;
45714;SDS011;31430;61.646;24.704;2023-03-01T00:53:34;46.58;;;43.67;;
45714;SDS011;31430;61.646;24.704;2023-03-01T00:56:00;47.33;;;44.38;;
45714;SDS011;31430;61.646;24.704;2023-03-01T00:58:26;47.60;;;44.63;;
45714;SDS011;31430;61.646;24.704;2023-03-01T01:00:52;46.70;;;43.80;;
45714;SDS011;31430;61.646;24.704;2023-03-01T01:03:18;45.70;;;42.85;;
45714;SDS011;31430;61.646;24.704;2023-03-01T01:05:44;46.60;;;43.70;;
45714;SDS011;31430;61.646;24.704;2023-03-01T01:08:10;46.60;;;43.70;;
45714;SDS011;31430;61.646;24.704;2023-03-01T01:10:36;48.88;;;45.83;;
45714;SDS011;31430;61.646;24.704;2023-03-01T01:13:01;46.85;;;43.95;;
45714;SDS011;31430;61.646;24.704;2023-03-01T01:15:28;46.83;;;43.92;;
45714;SDS011;31430;61.646;24.704;2023-03-01T01:17:53;45.97;;;43.10;;
45714;SDS011;31430;61.646;24.704;2023-03-01T01:20:19;45.30;;;42.50;;
45714;SDS011;31430;61.646;24.704;2023-03-01T01:22:45;44.90;;;42.10;;
45714;SDS011;31430;61.646;24.704;2023-03-01T01:25:11;46.97;;;44.08;;
45714;SDS011;31430;61.646;24.704;2023-03-01T01:27:37;45.20;;;42.40;;
45714;SDS011;31430;61.646;24.704;2023-03-01T01:30:03;46.47;;;43.58;;
45714;SDS011;31430;61.646;24.704;2023-03-01T01:32:29;45.53;;;42.70;;
45714;SDS011;31430;61.646;24.704;2023-03-01T01:34:55;46.28;;;43.38;;
45714;SDS011;31430;61.646;24.704;2023-03-01T01:37:21;46.45;;;43.55;;
45714;SDS011;31430;61.646;24.704;2023-03-01T01:39:46;48.00;;;45.00;;
45714;SDS011;31430;61.646;24.704;2023-03-01T01:42:14;45.33;;;42.53;;
45714;SDS011;31430;61.646;24.704;2023-03-01T01:44:42;46.80;;;43.90;;
45714;SDS011;31430;61.646;24.704;2023-03-01T01:47:13;46.60;;;43.70;;
45714;SDS011;31430;61.646;24.704;2023-03-01T01:49:53;47.15;;;44.22;;
45714;SDS011;31430;61.646;24.704;2023-03-01T01:52:25;45.80;;;42.95;;
45714;SDS011;31430;61.646;24.704;2023-03-01T01:54:59;45.00;;;42.20;;
45714;SDS011;31430;61.646;24.704;2023-03-01T01:57:34;46.53;;;43.63;;
45714;SDS011;31430;61.646;24.704;2023-03-01T02:00:09;48.53;;;45.50;;
45714;SDS011;31430;61.646;24.704;2023-03-01T02:02:37;46.60;;;43.70;;
45714;SDS011;31430;61.646;24.704;2023-03-01T02:05:08;46.95;;;44.05;;
45714;SDS011;31430;61.646;24.704;2023-03-01T02:07:42;47.05;;;44.13;;
45714;SDS011;31430;61.646;24.704;2023-03-01T02:10:09;46.55;;;43.65;;
45714;SDS011;31430;61.646;24.704;2023-03-01T02:12:35;46.33;;;43.42;;
45714;SDS011;31430;61.646;24.704;2023-03-01T02:15:04;46.05;;;43.17;;
45714;SDS011;31430;61.646;24.704;2023-03-01T02:17:30;45.75;;;42.90;;
45714;SDS011;31430;61.646;24.704;2023-03-01T02:22:51;47.35;;;44.42;;
45714;SDS011;31430;61.646;24.704;2023-03-01T02:30:55;50.28;;;47.15;;
45714;SDS011;31430;61.646;24.704;2023-03-01T02:33:40;47.92;;;44.92;;
45714;SDS011;31430;61.646;24.704;2023-03-01T02:36:15;47.58;;;44.60;;
45714;SDS011;31430;61.646;24.704;2023-03-01T02:38:56;47.28;;;44.35;;
45714;SDS011;31430;61.646;24.704;2023-03-01T02:41:25;48.30;;;45.30;;
45714;SDS011;31430;61.646;24.704;2023-03-01T02:43:53;46.83;;;43.92;;
45714;SDS011;31430;61.646;24.704;2023-03-01T02:46:23;46.42;;;43.53;;
45714;SDS011;31430;61.646;24.704;2023-03-01T02:48:51;48.15;;;45.15;;
45714;SDS011;31430;61.646;24.704;2023-03-01T02:56:54;48.05;;;45.05;;
45714;SDS011;31430;61.646;24.704;2023-03-01T02:59:22;47.20;;;44.28;;
45714;SDS011;31430;61.646;24.704;2023-03-01T03:01:51;47.72;;;44.75;;
45714;SDS011;31430;61.646;24.704;2023-03-01T03:04:18;46.55;;;43.65;;
45714;SDS011;31430;61.646;24.704;2023-03-01T03:06:46;47.70;;;44.72;;
45714;SDS011;31430;61.646;24.704;2023-03-01T03:09:13;46.28;;;43.38;;
45714;SDS011;31430;61.646;24.704;2023-03-01T03:11:40;47.35;;;44.40;;
45714;SDS011;31430;61.646;24.704;2023-03-01T03:14:08;46.88;;;43.97;;
45714;SDS011;31430;61.646;24.704;2023-03-01T03:16:47;47.33;;;44.38;;
45714;SDS011;31430;61.646;24.704;2023-03-01T03:19:14;46.88;;;43.97;;
45714;SDS011;31430;61.646;24.704;2023-03-01T03:21:41;47.03;;;44.10;;
45714;SDS011;31430;61.646;24.704;2023-03-01T03:24:07;46.45;;;43.55;;
45714;SDS011;31430;61.646;24.704;2023-03-01T03:26:33;46.13;;;43.25;;
45714;SDS011;31430;61.646;24.704;2023-03-01T03:28:59;46.40;;;43.50;;
45714;SDS011;31430;61.646;24.704;2023-03-01T03:31:25;45.05;;;42.25;;
45714;SDS011;31430;61.646;24.704;2023-03-01T03:33:51;45.42;;;42.63;;
45714;SDS011;31430;61.646;24.704;2023-03-01T03:36:17;46.63;;;43.72;;
45714;SDS011;31430;61.646;24.704;2023-03-01T03:38:44;46.22;;;43.33;;
45714;SDS011;31430;61.646;24.704;2023-03-01T03:41:11;46.30;;;43.42;;
45714;SDS011;31430;61.646;24.704;2023-03-01T03:43:37;45.38;;;42.58;;
45714;SDS011;31430;61.646;24.704;2023-03-01T03:46:05;46.15;;;43.28;;
45714;SDS011;31430;61.646;24.704;2023-03-01T03:48:35;44.90;;;42.10;;
45714;SDS011;31430;61.646;24.704;2023-03-01T03:51:02;44.90;;;42.10;;
45714;SDS011;31430;61.646;24.704;2023-03-01T03:53:30;45.88;;;43.03;;
45714;SDS011;31430;61.646;24.704;2023-03-01T03:55:57;45.05;;;42.25;;
45714;SDS011;31430;61.646;24.704;2023-03-01T03:58:23;46.25;;;43.35;;
45714;SDS011;31430;61.646;24.704;2023-03-01T04:00:54;45.40;;;42.60;;
45714;SDS011;31430;61.646;24.704;2023-03-01T04:03:21;47.00;;;44.10;;
45714;SDS011;31430;61.646;24.704;2023-03-01T04:05:50;45.15;;;42.35;;
45714;SDS011;31430;61.646;24.704;2023-03-01T04:08:16;47.03;;;44.10;;
45714;SDS011;31430;61.646;24.704;2023-03-01T04:10:45;46.20;;;43.30;;
45714;SDS011;31430;61.646;24.704;2023-03-01T04:13:15;47.13;;;44.20;;
45714;SDS011;31430;61.646;24.704;2023-03-01T04:15:44;47.28;;;44.35;;
45714;SDS011;31430;61.646;24.704;2023-03-01T04:18:14;44.60;;;41.80;;
45714;SDS011;31430;61.646;24.704;2023-03-01T04:20:41;44.00;;;41.28;;
45714;SDS011;31430;61.646;24.704;2023-03-01T04:23:08;45.35;;;42.55;;
45714;SDS011;31430;61.646;24.704;2023-03-01T04:25:59;46.47;;;43.58;;
45714;SDS011;31430;61.646;24.704;2023-03-01T04:28:25;45.40;;;42.60;;
45714;SDS011;31430;61.646;24.704;2023-03-01T04:30:56;46.13;;;43.25;;
45714;SDS011;31430;61.646;24.704;2023-03-01T04:33:23;44.42;;;41.65;;
45714;SDS011;31430;61.646;24.704;2023-03-01T04:35:50;45.75;;;42.90;;
45714;SDS011;31430;61.646;24.704;2023-03-01T04:38:16;45.97;;;43.10;;
45714;SDS011;31430;61.646;24.704;2023-03-01T04:40:43;45.70;;;42.85;;
45714;SDS011;31430;61.646;24.704;2023-03-01T04:43:09;45.05;;;42.25;;
45714;SDS011;31430;61.646;24.704;2023-03-01T04:45:38;46.30;;;43.40;;
45714;SDS011;31430;61.646;24.704;2023-03-01T04:48:04;43.72;;;41.03;;
45714;SDS011;31430;61.646;24.704;2023-03-01T04:50:30;43.97;;;41.25;;
45714;SDS011;31430;61.646;24.704;2023-03-01T04:52:55;45.00;;;42.20;;
45714;SDS011;31430;61.646;24.704;2023-03-01T04:55:27;45.47;;;42.65;;
45714;SDS011;31430;61.646;24.704;2023-03-01T04:57:53;45.05;;;42.25;;
45714;SDS011;31430;61.646;24.704;2023-03-01T05:00:20;46.35;;;43.45;;
45714;SDS011;31430;61.646;24.704;2023-03-01T05:05:13;44.38;;;41.60;;
45714;SDS011;31430;61.646;24.704;2023-03-01T05:07:39;43.97;;;41.25;;
45714;SDS011;31430;61.646;24.704;2023-03-01T05:12:31;46.55;;;43.65;;
45714;SDS011;31430;61.646;24.704;2023-03-01T05:14:56;45.47;;;42.65;;
45714;SDS011;31430;61.646;24.704;2023-03-01T05:17:23;44.70;;;41.90;;
45714;SDS011;31430;61.646;24.704;2023-03-01T05:22:15;47.42;;;44.47;;
45714;SDS011;31430;61.646;24.704;2023-03-01T05:24:41;45.75;;;42.90;;
45714;SDS011;31430;61.646;24.704;2023-03-01T05:29:32;50.55;;;47.42;;
45714;SDS011;31430;61.646;24.704;2023-03-01T05:32:00;46.53;;;43.63;;
45714;SDS011;31430;61.646;24.704;2023-03-01T05:34:29;45.05;;;42.25;;
45714;SDS011;31430;61.646;24.704;2023-03-01T05:36:56;45.63;;;42.80;;
45714;SDS011;31430;61.646;24.704;2023-03-01T05:41:52;48.35;;;45.35;;
45714;SDS011;31430;61.646;24.704;2023-03-01T05:44:22;46.03;;;43.15;;
45714;SDS011;31430;61.646;24.704;2023-03-01T05:46:48;44.47;;;41.70;;
45714;SDS011;31430;61.646;24.704;2023-03-01T05:51:40;46.58;;;43.67;;
45714;SDS011;31430;61.646;24.704;2023-03-01T05:54:06;44.50;;;41.72;;
45714;SDS011;31430;61.646;24.704;2023-03-01T05:56:33;44.42;;;41.65;;
45714;SDS011;31430;61.646;24.704;2023-03-01T05:59:00;46.17;;;43.30;;
45714;SDS011;31430;61.646;24.704;2023-03-01T06:01:26;43.67;;;40.97;;
45714;SDS011;31430;61.646;24.704;2023-03-01T06:06:18;46.85;;;43.95;;
45714;SDS011;31430;61.646;24.704;2023-03-01T06:08:43;45.53;;;42.70;;
45714;SDS011;31430;61.646;24.704;2023-03-01T06:11:09;44.95;;;42.15;;
45714;SDS011;31430;61.646;24.704;2023-03-01T06:16:03;47.40;;;44.45;;
45714;SDS011;31430;61.646;24.704;2023-03-01T06:18:31;46.92;;;44.03;;
45714;SDS011;31430;61.646;24.704;2023-03-01T06:23:22;47.53;;;44.58;;
45714;SDS011;31430;61.646;24.704;2023-03-01T06:25:48;46.17;;;43.30;;
45714;SDS011;31430;61.646;24.704;2023-03-01T06:30:40;48.35;;;45.35;;
45714;SDS011;31430;61.646;24.704;2023-03-01T06:35:31;48.40;;;45.40;;
45714;SDS011;31430;61.646;24.704;2023-03-01T06:37:58;46.65;;;43.75;;
45714;SDS011;31430;61.646;24.704;2023-03-01T06:40:24;45.55;;;42.72;;
45714;SDS011;31430;61.646;24.704;2023-03-01T06:45:17;46.45;;;43.55;;
45714;SDS011;31430;61.646;24.704;2023-03-01T06:47:43;47.60;;;44.63;;
45714;SDS011;31430;61.646;24.704;2023-03-01T06:52:35;46.75;;;43.85;;
45714;SDS011;31430;61.646;24.704;2023-03-01T06:57:27;47.35;;;44.40;;
45714;SDS011;31430;61.646;24.704;2023-03-01T06:59:53;45.40;;;42.60;;
45714;SDS011;31430;61.646;24.704;2023-03-01T07:04:44;46.03;;;43.15;;
45714;SDS011;31430;61.646;24.704;2023-03-01T07:09:35;48.00;;;45.00;;
45714;SDS011;31430;61.646;24.704;2023-03-01T07:12:01;46.53;;;43.63;;
45714;SDS011;31430;61.646;24.704;2023-03-01T07:14:27;43.67;;;40.97;;
45714;SDS011;31430;61.646;24.704;2023-03-01T07:19:19;46.30;;;43.40;;
45714;SDS011;31430;61.646;24.704;2023-03-01T07:21:45;45.97;;;43.13;;
45714;SDS011;31430;61.646;24.704;2023-03-01T07:26:37;47.08;;;44.15;;
45714;SDS011;31430;61.646;24.704;2023-03-01T07:29:04;44.80;;;42.00;;
45714;SDS011;31430;61.646;24.704;2023-03-01T07:31:31;42.70;;;40.05;;
45714;SDS011;31430;61.646;24.704;2023-03-01T07:33:57;42.08;;;39.47;;
45714;SDS011;31430;61.646;24.704;2023-03-01T07:38:49;44.53;;;41.75;;
45714;SDS011;31430;61.646;24.704;2023-03-01T07:41:15;42.80;;;40.13;;
45714;SDS011;31430;61.646;24.704;2023-03-01T07:46:06;46.22;;;43.35;;
45714;SDS011;31430;61.646;24.704;2023-03-01T07:48:34;43.30;;;40.60;;
45714;SDS011;31430;61.646;24.704;2023-03-01T07:53:26;45.60;;;42.78;;
45714;SDS011;31430;61.646;24.704;2023-03-01T07:56:11;42.33;;;39.70;;
45714;SDS011;31430;61.646;24.704;2023-03-01T07:58:39;42.72;;;40.05;;
45714;SDS011;31430;61.646;24.704;2023-03-01T08:01:07;42.33;;;39.70;;
45714;SDS011;31430;61.646;24.704;2023-03-01T08:03:35;41.75;;;39.15;;
45714;SDS011;31430;61.646;24.704;2023-03-01T08:06:04;41.25;;;38.67;;
45714;SDS011;31430;61.646;24.704;2023-03-01T08:08:32;40.45;;;37.95;;
45714;SDS011;31430;61.646;24.704;2023-03-01T08:13:23;44.35;;;41.58;;
45714;SDS011;31430;61.646;24.704;2023-03-01T08:18:15;46.78;;;43.88;;
45714;SDS011;31430;61.646;24.704;2023-03-01T08:20:41;43.33;;;40.63;;
45714;SDS011;31430;61.646;24.704;2023-03-01T08:25:33;46.08;;;43.20;;
45714;SDS011;31430;61.646;24.704;2023-03-01T08:30:24;46.65;;;43.75;;
45714;SDS011;31430;61.646;24.704;2023-03-01T08:32:50;43.33;;;40.63;;
45714;SDS011;31430;61.646;24.704;2023-03-01T08:37:42;43.25;;;40.55;;
45714;SDS011;31430;61.646;24.704;2023-03-01T08:42:35;43.92;;;41.20;;
45714;SDS011;31430;61.646;24.704;2023-03-01T08:45:05;41.40;;;38.80;;
45714;SDS011;31430;61.646;24.704;2023-03-01T08:47:31;41.70;;;39.10;;
45714;SDS011;31430;61.646;24.704;2023-03-01T08:49:58;40.95;;;38.40;;
45714;SDS011;31430;61.646;24.704;2023-03-01T08:52:28;41.00;;;38.45;;
45714;SDS011;31430;61.646;24.704;2023-03-01T08:54:55;40.50;;;38.00;;
45714;SDS011;31430;61.646;24.704;2023-03-01T08:59:47;42.53;;;39.90;;
45714;SDS011;31430;61.646;24.704;2023-03-01T09:04:39;43.47;;;40.78;;
45714;SDS011;31430;61.646;24.704;2023-03-01T09:07:06;42.35;;;39.72;;
45714;SDS011;31430;61.646;24.704;2023-03-01T09:09:32;42.05;;;39.45;;
45714;SDS011;31430;61.646;24.704;2023-03-01T09:11:57;41.25;;;38.67;;
45714;SDS011;31430;61.646;24.704;2023-03-01T09:16:49;42.45;;;39.80;;
45714;SDS011;31430;61.646;24.704;2023-03-01T09:19:15;40.25;;;37.75;;
45714;SDS011;31430;61.646;24.704;2023-03-01T09:24:16;41.67;;;39.08;;
45714;SDS011;31430;61.646;24.704;2023-03-01T09:26:42;41.65;;;39.05;;
45714;SDS011;31430;61.646;24.704;2023-03-01T09:29:11;38.85;;;36.45;;
45714;SDS011;31430;61.646;24.704;2023-03-01T09:34:02;40.72;;;38.20;;
45714;SDS011;31430;61.646;24.704;2023-03-01T09:38:54;42.63;;;39.97;;
45714;SDS011;31430;61.646;24.704;2023-03-01T09:46:43;38.92;;;36.53;;
45714;SDS011;31430;61.646;24.704;2023-03-01T09:49:14;38.45;;;36.05;;
45714;SDS011;31430;61.646;24.704;2023-03-01T09:51:46;38.20;;;35.80;;
45714;SDS011;31430;61.646;24.704;2023-03-01T09:54:24;40.00;;;37.50;;
45714;SDS011;31430;61.646;24.704;2023-03-01T09:59:33;40.90;;;38.35;;
45714;SDS011;31430;61.646;24.704;2023-03-01T10:02:26;38.75;;;36.35;;
45714;SDS011;31430;61.646;24.704;2023-03-01T10:08:23;39.40;;;36.95;;
45714;SDS011;31430;61.646;24.704;2023-03-01T10:10:51;39.67;;;37.20;;
45714;SDS011;31430;61.646;24.704;2023-03-01T10:13:23;38.42;;;36.03;;
45714;SDS011;31430;61.646;24.704;2023-03-01T10:16:19;38.17;;;35.78;;
45714;SDS011;31430;61.646;24.704;2023-03-01T10:19:00;38.45;;;36.05;;
45714;SDS011;31430;61.646;24.704;2023-03-01T10:21:28;38.65;;;36.25;;
45714;SDS011;31430;61.646;24.704;2023-03-01T10:23:56;37.83;;;35.45;;
45714;SDS011;31430;61.646;24.704;2023-03-01T10:29:18;37.67;;;35.33;;
45714;SDS011;31430;61.646;24.704;2023-03-01T10:31:49;37.67;;;35.33;;
45714;SDS011;31430;61.646;24.704;2023-03-01T10:34:33;37.75;;;35.40;;
45714;SDS011;31430;61.646;24.704;2023-03-01T10:37:11;38.30;;;35.90;;
45714;SDS011;31430;61.646;24.704;2023-03-01T10:42:45;36.90;;;34.60;;
45714;SDS011;31430;61.646;24.704;2023-03-01T10:48:11;39.75;;;37.25;;
45714;SDS011;31430;61.646;24.704;2023-03-01T10:50:48;39.78;;;37.28;;
45714;SDS011;31430;61.646;24.704;2023-03-01T10:53:23;39.25;;;36.80;;
45714;SDS011;31430;61.646;24.704;2023-03-01T10:58:26;37.42;;;35.10;;
45714;SDS011;31430;61.646;24.704;2023-03-01T11:03:22;40.40;;;37.90;;
45714;SDS011;31430;61.646;24.704;2023-03-01T11:08:44;38.75;;;36.35;;
45714;SDS011;31430;61.646;24.704;2023-03-01T11:16:07;39.00;;;36.58;;
45714;SDS011;31430;61.646;24.704;2023-03-01T11:18:37;38.20;;;35.80;;
45714;SDS011;31430;61.646;24.704;2023-03-01T11:23:29;40.63;;;38.13;;
45714;SDS011;31430;61.646;24.704;2023-03-01T11:26:02;38.22;;;35.83;;
45714;SDS011;31430;61.646;24.704;2023-03-01T11:28:32;38.53;;;36.13;;
45714;SDS011;31430;61.646;24.704;2023-03-01T11:31:02;37.20;;;34.90;;
45714;SDS011;31430;61.646;24.704;2023-03-01T11:33:48;36.80;;;34.50;;
45714;SDS011;31430;61.646;24.704;2023-03-01T11:36:41;36.83;;;34.53;;
45714;SDS011;31430;61.646;24.704;2023-03-01T11:42:59;37.10;;;34.80;;
45714;SDS011;31430;61.646;24.704;2023-03-01T11:45:11;38.45;;;36.05;;
45714;SDS011;31430;61.646;24.704;2023-03-01T12:09:38;37.60;;;35.25;;
45714;SDS011;31430;61.646;24.704;2023-03-01T12:27:10;37.83;;;35.45;;
45714;SDS011;31430;61.646;24.704;2023-03-01T12:29:34;37.53;;;35.20;;
45714;SDS011;31430;61.646;24.704;2023-03-01T12:43:44;37.65;;;35.30;;
45714;SDS011;31430;61.646;24.704;2023-03-01T12:51:46;40.75;;;38.22;;
45714;SDS011;31430;61.646;24.704;2023-03-01T12:54:26;38.30;;;35.90;;
45714;SDS011;31430;61.646;24.704;2023-03-01T12:56:53;37.10;;;34.80;;
45714;SDS011;31430;61.646;24.704;2023-03-01T13:02:12;38.08;;;35.70;;
45714;SDS011;31430;61.646;24.704;2023-03-01T13:07:48;37.28;;;34.97;;
45714;SDS011;31430;61.646;24.704;2023-03-01T13:10:34;36.58;;;34.28;;
45714;SDS011;31430;61.646;24.704;2023-03-01T13:13:14;36.22;;;33.95;;
45714;SDS011;31430;61.646;24.704;2023-03-01T13:15:43;36.05;;;33.80;;
45714;SDS011;31430;61.646;24.704;2023-03-01T13:25:43;36.47;;;34.17;;
45714;SDS011;31430;61.646;24.704;2023-03-01T13:33:48;37.13;;;34.83;;
45714;SDS011;31430;61.646;24.704;2023-03-01T13:41:52;36.85;;;34.55;;
45714;SDS011;31430;61.646;24.704;2023-03-01T13:49:48;36.60;;;34.30;;
45714;SDS011;31430;61.646;24.704;2023-03-01T13:57:38;35.63;;;33.42;;
45714;SDS011;31430;61.646;24.704;2023-03-01T14:00:05;37.30;;;35.00;;
45714;SDS011;31430;61.646;24.704;2023-03-01T14:02:31;35.72;;;33.50;;
45714;SDS011;31430;61.646;24.704;2023-03-01T14:05:00;36.17;;;33.92;;
45714;SDS011;31430;61.646;24.704;2023-03-01T14:07:27;36.05;;;33.80;;
45714;SDS011;31430;61.646;24.704;2023-03-01T14:09:57;36.70;;;34.40;;
45714;SDS011;31430;61.646;24.704;2023-03-01T14:15:29;37.30;;;35.00;;
45714;SDS011;31430;61.646;24.704;2023-03-01T14:20:32;37.05;;;34.75;;
45714;SDS011;31430;61.646;24.704;2023-03-01T14:23:08;37.17;;;34.88;;
45714;SDS011;31430;61.646;24.704;2023-03-01T14:25:38;36.08;;;33.83;;
45714;SDS011;31430;61.646;24.704;2023-03-01T14:28:23;37.05;;;34.75;;
45714;SDS011;31430;61.646;24.704;2023-03-01T14:30:54;37.45;;;35.13;;
45714;SDS011;31430;61.646;24.704;2023-03-01T14:38:21;37.05;;;34.75;;
45714;SDS011;31430;61.646;24.704;2023-03-01T14:40:57;35.50;;;33.30;;
45714;SDS011;31430;61.646;24.704;2023-03-01T14:43:26;35.90;;;33.67;;
45714;SDS011;31430;61.646;24.704;2023-03-01T14:45:54;37.33;;;35.00;;
45714;SDS011;31430;61.646;24.704;2023-03-01T14:48:19;36.47;;;34.17;;
45714;SDS011;31430;61.646;24.704;2023-03-01T14:50:46;36.63;;;34.33;;
45714;SDS011;31430;61.646;24.704;2023-03-01T14:53:22;36.80;;;34.50;;
45714;SDS011;31430;61.646;24.704;2023-03-01T14:55:52;36.00;;;33.75;;
45714;SDS011;31430;61.646;24.704;2023-03-01T14:58:20;36.28;;;34.00;;
45714;SDS011;31430;61.646;24.704;2023-03-01T15:00:52;35.63;;;33.42;;
45714;SDS011;31430;61.646;24.704;2023-03-01T15:03:25;36.50;;;34.20;;
45714;SDS011;31430;61.646;24.704;2023-03-01T15:05:57;36.83;;;34.53;;
45714;SDS011;31430;61.646;24.704;2023-03-01T15:08:25;37.38;;;35.05;;
45714;SDS011;31430;61.646;24.704;2023-03-01T15:13:38;36.90;;;34.60;;
45714;SDS011;31430;61.646;24.704;2023-03-01T15:16:11;36.22;;;33.95;;
45714;SDS011;31430;61.646;24.704;2023-03-01T15:18:46;36.85;;;34.55;;
45714;SDS011;31430;61.646;24.704;2023-03-01T15:21:18;37.92;;;35.55;;
45714;SDS011;31430;61.646;24.704;2023-03-01T15:23:51;37.40;;;35.08;;
45714;SDS011;31430;61.646;24.704;2023-03-01T15:26:30;37.97;;;35.60;;
45714;SDS011;31430;61.646;24.704;2023-03-01T15:29:00;37.00;;;34.70;;
45714;SDS011;31430;61.646;24.704;2023-03-01T15:34:06;39.88;;;37.38;;
45714;SDS011;31430;61.646;24.704;2023-03-01T15:36:44;38.08;;;35.70;;
45714;SDS011;31430;61.646;24.704;2023-03-01T15:39:31;38.50;;;36.10;;
45714;SDS011;31430;61.646;24.704;2023-03-01T15:41:58;38.38;;;35.97;;
45714;SDS011;31430;61.646;24.704;2023-03-01T15:46:51;37.90;;;35.53;;
45714;SDS011;31430;61.646;24.704;2023-03-01T15:52:02;38.10;;;35.70;;
45714;SDS011;31430;61.646;24.704;2023-03-01T15:54:28;37.30;;;35.00;;
45714;SDS011;31430;61.646;24.704;2023-03-01T15:56:54;37.90;;;35.53;;
45714;SDS011;31430;61.646;24.704;2023-03-01T15:59:20;37.65;;;35.30;;
45714;SDS011;31430;61.646;24.704;2023-03-01T16:01:47;37.75;;;35.40;;
45714;SDS011;31430;61.646;24.704;2023-03-01T16:04:13;37.47;;;35.15;;
45714;SDS011;31430;61.646;24.704;2023-03-01T16:06:51;37.88;;;35.50;;
45714;SDS011;31430;61.646;24.704;2023-03-01T16:09:21;35.97;;;33.73;;
45714;SDS011;31430;61.646;24.704;2023-03-01T16:11:49;37.65;;;35.30;;
45714;SDS011;31430;61.646;24.704;2023-03-01T16:14:15;37.92;;;35.55;;
45714;SDS011;31430;61.646;24.704;2023-03-01T16:19:07;39.45;;;37.00;;
45714;SDS011;31430;61.646;24.704;2023-03-01T16:21:33;39.35;;;36.90;;
45714;SDS011;31430;61.646;24.704;2023-03-01T16:23:58;38.00;;;35.63;;
45714;SDS011;31430;61.646;24.704;2023-03-01T16:26:24;39.03;;;36.60;;
45714;SDS011;31430;61.646;24.704;2023-03-01T16:28:50;39.25;;;36.80;;
45714;SDS011;31430;61.646;24.704;2023-03-01T16:31:20;38.80;;;36.40;;
45714;SDS011;31430;61.646;24.704;2023-03-01T16:36:14;41.20;;;38.63;;
45714;SDS011;31430;61.646;24.704;2023-03-01T16:38:42;38.15;;;35.75;;
45714;SDS011;31430;61.646;24.704;2023-03-01T16:43:37;42.13;;;39.53;;
45714;SDS011;31430;61.646;24.704;2023-03-01T16:46:12;41.45;;;38.85;;
45714;SDS011;31430;61.646;24.704;2023-03-01T16:48:40;40.78;;;38.25;;
45714;SDS011;31430;61.646;24.704;2023-03-01T16:53:32;41.83;;;39.22;;
45714;SDS011;31430;61.646;24.704;2023-03-01T16:56:01;40.35;;;37.85;;
45714;SDS011;31430;61.646;24.704;2023-03-01T16:58:28;39.88;;;37.38;;
45714;SDS011;31430;61.646;24.704;2023-03-01T17:03:22;41.42;;;38.83;;
45714;SDS011;31430;61.646;24.704;2023-03-01T17:05:49;41.17;;;38.60;;
45714;SDS011;31430;61.646;24.704;2023-03-01T17:08:15;40.58;;;38.05;;
45714;SDS011;31430;61.646;24.704;2023-03-01T17:10:41;39.30;;;36.85;;
45714;SDS011;31430;61.646;24.704;2023-03-01T17:13:10;40.45;;;37.95;;
45714;SDS011;31430;61.646;24.704;2023-03-01T17:15:39;39.42;;;36.97;;
45714;SDS011;31430;61.646;24.704;2023-03-01T17:18:06;40.15;;;37.65;;
45714;SDS011;31430;61.646;24.704;2023-03-01T17:20:33;39.22;;;36.80;;
45714;SDS011;31430;61.646;24.704;2023-03-01T17:25:24;41.45;;;38.85;;
45714;SDS011;31430;61.646;24.704;2023-03-01T17:27:50;40.95;;;38.40;;
45714;SDS011;31430;61.646;24.704;2023-03-01T17:32:42;42.42;;;39.80;;
45714;SDS011;31430;61.646;24.704;2023-03-01T17:37:35;43.33;;;40.63;;
45714;SDS011;31430;61.646;24.704;2023-03-01T17:40:04;41.78;;;39.17;;
45714;SDS011;31430;61.646;24.704;2023-03-01T17:42:31;41.88;;;39.28;;
45714;SDS011;31430;61.646;24.704;2023-03-01T17:44:57;40.70;;;38.17;;
45714;SDS011;31430;61.646;24.704;2023-03-01T17:47:24;42.33;;;39.70;;
45714;SDS011;31430;61.646;24.704;2023-03-01T17:49:50;40.30;;;37.80;;
45714;SDS011;31430;61.646;24.704;2023-03-01T17:54:41;44.25;;;41.47;;
45714;SDS011;31430;61.646;24.704;2023-03-01T17:59:34;43.53;;;40.83;;
45714;SDS011;31430;61.646;24.704;2023-03-01T18:02:01;42.85;;;40.17;;
45714;SDS011;31430;61.646;24.704;2023-03-01T18:06:53;45.40;;;42.58;;
45714;SDS011;31430;61.646;24.704;2023-03-01T18:09:20;42.65;;;39.97;;
45714;SDS011;31430;61.646;24.704;2023-03-01T18:11:46;41.92;;;39.33;;
45714;SDS011;31430;61.646;24.704;2023-03-01T18:16:37;43.88;;;41.15;;
45714;SDS011;31430;61.646;24.704;2023-03-01T18:19:03;42.25;;;39.63;;
45714;SDS011;31430;61.646;24.704;2023-03-01T18:21:30;41.85;;;39.25;;
45714;SDS011;31430;61.646;24.704;2023-03-01T18:23:56;41.50;;;38.90;;
45714;SDS011;31430;61.646;24.704;2023-03-01T18:26:23;41.22;;;38.65;;
45714;SDS011;31430;61.646;24.704;2023-03-01T18:28:51;41.38;;;38.78;;
45714;SDS011;31430;61.646;24.704;2023-03-01T18:31:18;41.53;;;38.92;;
45714;SDS011;31430;61.646;24.704;2023-03-01T18:33:46;41.60;;;39.00;;
45714;SDS011;31430;61.646;24.704;2023-03-01T18:36:34;41.97;;;39.38;;
45714;SDS011;31430;61.646;24.704;2023-03-01T18:39:03;42.10;;;39.50;;
45714;SDS011;31430;61.646;24.704;2023-03-01T18:41:30;42.22;;;39.60;;
45714;SDS011;31430;61.646;24.704;2023-03-01T18:43:56;40.78;;;38.25;;
45714;SDS011;31430;61.646;24.704;2023-03-01T18:46:23;41.67;;;39.08;;
45714;SDS011;31430;61.646;24.704;2023-03-01T18:48:52;42.00;;;39.40;;
45714;SDS011;31430;61.646;24.704;2023-03-01T18:51:19;43.28;;;40.58;;
45714;SDS011;31430;61.646;24.704;2023-03-01T18:53:47;42.55;;;39.90;;